createdAt,value
2018-02-17T00:00:02.971Z,-0.80
2018-02-17T00:02:32.077Z,-0.50
2018-02-17T00:05:01.239Z,-0.50
2018-02-17T00:07:30.360Z,-0.60
2018-02-17T00:09:59.867Z,-1.00
2018-02-17T00:12:29.363Z,-1.10
2018-02-17T00:14:58.886Z,-1.20
2018-02-17T00:17:28.402Z,-1.10
2018-02-17T00:19:57.897Z,-1.10
2018-02-17T00:22:27.384Z,-1.10
2018-02-17T00:24:56.081Z,-1.00
2018-02-17T00:27:25.243Z,-1.00
2018-02-17T00:29:54.351Z,-1.00
2018-02-17T00:32:23.502Z,-1.00
2018-02-17T00:34:52.994Z,-0.90
2018-02-17T00:37:21.735Z,-0.90
2018-02-17T00:39:50.443Z,-0.70
2018-02-17T00:42:19.183Z,-0.70
2018-02-17T00:44:48.291Z,-0.90
2018-02-17T00:47:17.418Z,-1.10
2018-02-17T00:49:46.155Z,-1.10
2018-02-17T00:52:15.277Z,-1.00
2018-02-17T00:54:44.524Z,-1.10
2018-02-17T00:57:13.295Z,-1.00
2018-02-17T00:59:42.131Z,-1.10
2018-02-17T01:02:11.230Z,-1.20
2018-02-17T01:04:40.742Z,-1.10
2018-02-17T01:07:09.462Z,-1.10
2018-02-17T01:09:38.191Z,-0.90
2018-02-17T01:12:06.890Z,-0.80
2018-02-17T01:14:36.384Z,-1.10
2018-02-17T01:17:05.291Z,-1.10
2018-02-17T01:19:34.008Z,-1.20
2018-02-17T01:22:03.227Z,-0.90
2018-02-17T01:24:32.371Z,-1.10
2018-02-17T01:27:01.231Z,-1.10
2018-02-17T01:29:30.343Z,-1.00
2018-02-17T01:31:59.050Z,-0.90
2018-02-17T01:34:27.906Z,-0.90
2018-02-17T01:36:56.635Z,-0.90
2018-02-17T01:39:25.358Z,-0.90
2018-02-17T01:41:54.637Z,-0.90
2018-02-17T01:44:23.567Z,-0.80
2018-02-17T01:46:53.035Z,-0.60
2018-02-17T01:49:21.799Z,-0.50
2018-02-17T01:51:50.500Z,-0.50
2018-02-17T01:54:19.483Z,-0.50
2018-02-17T01:56:48.188Z,-0.60
2018-02-17T01:59:17.116Z,-0.60
2018-02-17T02:01:46.605Z,-0.60
2018-02-17T02:04:15.359Z,-0.60
2018-02-17T02:06:44.064Z,-0.60
2018-02-17T02:09:14.300Z,-0.70
2018-02-17T02:11:43.011Z,-0.70
2018-02-17T02:14:11.740Z,-0.70
2018-02-17T02:16:40.504Z,-0.70
2018-02-17T02:19:09.972Z,-0.70
2018-02-17T02:21:38.698Z,-0.70
2018-02-17T02:24:07.430Z,-0.70
2018-02-17T02:26:36.146Z,-0.70
2018-02-17T02:29:04.910Z,-0.50
2018-02-17T02:31:33.652Z,-0.50
2018-02-17T02:34:02.451Z,-0.50
2018-02-17T02:36:31.270Z,-0.50
2018-02-17T02:38:59.994Z,-0.50
2018-02-17T02:41:28.706Z,-0.60
2018-02-17T02:43:58.234Z,-0.50
2018-02-17T02:46:27.004Z,-0.40
2018-02-17T02:48:55.714Z,-0.30
2018-02-17T02:51:24.442Z,-0.30
2018-02-17T02:53:53.943Z,-0.40
2018-02-17T02:56:22.643Z,-0.40
2018-02-17T02:58:51.356Z,-0.40
2018-02-17T03:01:20.850Z,-0.40
2018-02-17T03:03:49.560Z,-0.60
2018-02-17T03:06:19.042Z,-0.50
2018-02-17T03:08:48.518Z,-0.50
2018-02-17T03:11:17.232Z,-0.40
2018-02-17T03:13:46.730Z,-0.40
2018-02-17T03:16:16.686Z,-0.50
2018-02-17T03:18:45.582Z,-0.60
2018-02-17T03:21:14.458Z,-0.50
2018-02-17T03:23:43.943Z,-0.30
2018-02-17T03:26:12.650Z,-0.30
2018-02-17T03:28:41.950Z,-0.20
2018-02-17T03:31:11.419Z,-0.20
2018-02-17T03:33:40.144Z,-0.30
2018-02-17T03:36:09.663Z,-0.20
2018-02-17T03:38:39.271Z,-0.20
2018-02-17T03:41:08.756Z,-0.40
2018-02-17T03:43:37.454Z,-0.40
2018-02-17T03:46:06.950Z,-0.20
2018-02-17T03:48:36.422Z,-0.10
2018-02-17T03:51:05.154Z,-0.20
2018-02-17T03:53:34.660Z,-0.20
2018-02-17T03:56:04.148Z,-0.10
2018-02-17T03:58:32.867Z,-0.20
2018-02-17T04:01:02.350Z,0.00
2018-02-17T04:03:31.046Z,-0.10
2018-02-17T04:06:00.530Z,0.00
2018-02-17T04:08:29.255Z,0.00
2018-02-17T04:10:57.971Z,0.00
2018-02-17T04:13:26.687Z,0.10
2018-02-17T04:15:55.422Z,0.20
2018-02-17T04:18:24.120Z,0.10
2018-02-17T04:20:53.133Z,0.10
2018-02-17T04:23:21.842Z,0.10
2018-02-17T04:25:50.573Z,0.20
2018-02-17T04:28:19.299Z,0.20
2018-02-17T04:30:48.040Z,0.30
2018-02-17T04:33:17.535Z,0.30
2018-02-17T04:35:46.243Z,0.30
2018-02-17T04:38:14.782Z,0.20
2018-02-17T04:40:57.826Z,0.20
2018-02-17T04:43:27.127Z,0.30
2018-02-17T04:45:59.089Z,0.40
2018-02-17T04:48:30.050Z,0.50
2018-02-17T04:51:14.227Z,0.30
2018-02-17T04:53:43.559Z,0.30
2018-02-17T04:56:13.622Z,0.40
2018-02-17T04:58:47.819Z,0.30
2018-02-17T05:01:21.023Z,0.40
2018-02-17T05:03:53.219Z,0.40
2018-02-17T05:06:22.739Z,0.40
2018-02-17T05:09:08.985Z,0.40
2018-02-17T05:11:38.270Z,0.30
2018-02-17T05:27:43.334Z,0.30
2018-02-17T05:30:12.619Z,0.40
2018-02-17T05:32:41.918Z,0.30
2018-02-17T05:35:16.225Z,0.30
2018-02-17T05:37:44.790Z,0.30
2018-02-17T05:40:14.122Z,0.40
2018-02-17T05:42:44.582Z,0.30
2018-02-17T05:45:24.136Z,0.30
2018-02-17T05:47:58.654Z,0.50
2018-02-17T05:50:27.179Z,0.60
2018-02-17T05:52:55.886Z,0.50
2018-02-17T05:55:24.715Z,0.60
2018-02-17T05:57:53.444Z,0.50
2018-02-17T06:00:21.951Z,0.50
2018-02-17T06:02:50.666Z,0.60
2018-02-17T06:05:19.378Z,0.60
2018-02-17T06:07:47.915Z,0.50
2018-02-17T06:10:17.006Z,0.60
2018-02-17T06:12:45.717Z,0.60
2018-02-17T06:15:15.180Z,0.60
2018-02-17T06:17:43.898Z,0.50
2018-02-17T06:20:13.358Z,0.60
2018-02-17T06:22:42.070Z,0.60
2018-02-17T06:25:10.818Z,0.70
2018-02-17T06:27:39.669Z,0.70
2018-02-17T06:30:09.175Z,0.60
2018-02-17T06:32:38.655Z,0.70
2018-02-17T06:35:07.372Z,0.60
2018-02-17T06:37:36.831Z,0.80
2018-02-17T06:40:05.650Z,0.60
2018-02-17T06:42:34.434Z,0.60
2018-02-17T06:45:03.151Z,0.70
2018-02-17T06:47:32.638Z,0.70
2018-02-17T06:50:01.346Z,0.60
2018-02-17T06:52:30.067Z,0.80
2018-02-17T06:54:58.765Z,0.80
2018-02-17T06:57:27.714Z,0.70
2018-02-17T06:59:57.184Z,0.70
2018-02-17T07:02:25.893Z,0.70
2018-02-17T07:04:55.376Z,0.70
2018-02-17T07:07:24.076Z,0.70
2018-02-17T07:09:52.787Z,0.70
2018-02-17T07:12:21.688Z,0.70
2018-02-17T07:14:51.159Z,0.60
2018-02-17T07:17:19.886Z,0.60
2018-02-17T07:19:48.578Z,0.60
2018-02-17T07:22:17.679Z,0.60
2018-02-17T07:24:46.607Z,0.70
2018-02-17T07:27:15.335Z,0.70
2018-02-17T07:29:44.819Z,0.80
2018-02-17T07:32:13.927Z,0.80
2018-02-17T07:34:42.637Z,0.80
2018-02-17T07:37:11.763Z,0.80
2018-02-17T07:39:40.870Z,0.90
2018-02-17T07:42:09.984Z,0.90
2018-02-17T07:44:38.711Z,1.00
2018-02-17T07:47:07.827Z,1.10
2018-02-17T07:49:36.949Z,1.00
2018-02-17T07:52:05.663Z,1.10
2018-02-17T07:54:34.379Z,1.10
2018-02-17T07:57:03.530Z,1.00
2018-02-17T07:59:32.643Z,1.00
2018-02-17T08:02:01.864Z,1.00
2018-02-17T08:04:31.410Z,0.90
2018-02-17T08:07:00.903Z,1.00
2018-02-17T08:09:30.023Z,1.00
2018-02-17T08:11:58.754Z,1.00
2018-02-17T08:14:28.018Z,1.10
2018-02-17T08:16:56.734Z,1.10
2018-02-17T08:19:26.935Z,1.10
2018-02-17T08:21:55.672Z,1.10
2018-02-17T08:24:24.769Z,1.00
2018-02-17T08:26:54.492Z,1.00
2018-02-17T08:29:23.699Z,1.00
2018-02-17T08:31:52.847Z,1.00
2018-02-17T08:34:21.570Z,1.10
2018-02-17T08:36:50.673Z,1.20
2018-02-17T08:39:20.372Z,1.10
2018-02-17T08:41:49.858Z,1.00
2018-02-17T08:44:19.501Z,1.00
2018-02-17T08:46:48.610Z,1.10
2018-02-17T08:49:17.731Z,1.10
2018-02-17T08:51:46.831Z,1.10
2018-02-17T08:54:16.717Z,1.10
2018-02-17T08:56:45.815Z,1.10
2018-02-17T08:59:14.990Z,0.90
2018-02-17T09:01:44.471Z,1.30
2018-02-17T09:04:13.977Z,1.30
2018-02-17T09:06:42.847Z,1.20
2018-02-17T09:09:11.754Z,1.50
2018-02-17T09:11:40.688Z,1.50
2018-02-17T09:14:09.404Z,1.50
2018-02-17T09:16:38.899Z,1.40
2018-02-17T09:19:07.599Z,1.40
2018-02-17T09:21:38.088Z,1.40
2018-02-17T09:24:07.574Z,1.70
2018-02-17T09:26:36.718Z,1.70
2018-02-17T09:29:05.815Z,1.60
2018-02-17T09:31:36.103Z,1.80
2018-02-17T09:34:05.584Z,1.60
2018-02-17T09:36:34.691Z,1.60
2018-02-17T09:39:03.284Z,1.40
2018-02-17T09:41:32.227Z,1.60
2018-02-17T16:10:55.934Z,0.10
2018-02-17T16:20:54.291Z,0.10
2018-02-17T16:23:23.465Z,0.10
2018-02-17T16:28:23.438Z,0.20
2018-02-17T19:55:39.515Z,-0.40
2018-02-17T20:03:08.555Z,-0.40
2018-02-17T20:08:08.224Z,-0.40
2018-02-17T20:18:06.736Z,-0.40
2018-02-17T20:25:35.911Z,-0.40
2018-02-17T20:28:04.331Z,-0.50
2018-02-17T20:30:33.623Z,-0.50
2018-02-17T20:38:03.220Z,-0.50
2018-02-17T20:40:34.256Z,-0.40
2018-02-17T20:43:04.319Z,-0.40
2018-02-17T20:45:34.261Z,-0.50
2018-02-17T20:48:04.282Z,-0.40
2018-02-17T20:50:34.283Z,-0.40
2018-02-17T20:53:04.306Z,-0.30
2018-02-17T20:55:33.833Z,-0.40
2018-02-17T20:58:04.080Z,-0.40
2018-02-17T21:00:34.134Z,-0.40
2018-02-17T21:03:04.576Z,-0.40
2018-02-17T21:05:34.105Z,-0.40
2018-02-17T21:08:03.279Z,-0.40
2018-02-17T21:15:32.612Z,-0.50
2018-02-17T21:18:01.718Z,-0.40
2018-02-17T21:20:30.490Z,-0.40
2018-02-17T21:22:59.228Z,-0.40
2018-02-17T21:25:28.352Z,-0.30
2018-02-17T21:27:57.460Z,-0.30
2018-02-17T21:32:56.314Z,-0.40
2018-02-17T21:35:25.431Z,-0.50
2018-02-17T21:40:23.911Z,-0.40
2018-02-17T21:50:21.811Z,-0.40
